sensor_id;sensor_type;location;lat;lon;timestamp;temperature;humidity
62555;DHT22;48610;52.144;8.624;2023-07-31T00:00:45;16.40;99.90
62555;DHT22;48610;52.144;8.624;2023-07-31T00:03:46;16.40;99.90
62555;DHT22;48610;52.144;8.624;2023-07-31T00:06:47;16.30;99.90
62555;DHT22;48610;52.144;8.624;2023-07-31T00:09:48;16.20;99.90
62555;DHT22;48610;52.144;8.624;2023-07-31T00:12:49;16.40;99.90
62555;DHT22;48610;52.144;8.624;2023-07-31T00:15:50;16.50;99.90
62555;DHT22;48610;52.144;8.624;2023-07-31T00:18:50;16.30;99.90
62555;DHT22;48610;52.144;8.624;2023-07-31T00:21:51;16.30;99.90
62555;DHT22;48610;52.144;8.624;2023-07-31T00:24:51;16.20;99.90
62555;DHT22;48610;52.144;8.624;2023-07-31T00:27:52;16.20;99.90
62555;DHT22;48610;52.144;8.624;2023-07-31T00:30:53;16.10;99.90
62555;DHT22;48610;52.144;8.624;2023-07-31T00:33:53;16.00;99.90
62555;DHT22;48610;52.144;8.624;2023-07-31T00:36:54;16.00;99.90
62555;DHT22;48610;52.144;8.624;2023-07-31T00:39:54;16.10;99.90
62555;DHT22;48610;52.144;8.624;2023-07-31T00:42:55;16.20;99.90
62555;DHT22;48610;52.144;8.624;2023-07-31T00:45:56;16.30;99.90
62555;DHT22;48610;52.144;8.624;2023-07-31T00:48:57;16.10;99.90
62555;DHT22;48610;52.144;8.624;2023-07-31T00:51:57;16.10;99.90
62555;DHT22;48610;52.144;8.624;2023-07-31T00:54:59;16.30;99.90
62555;DHT22;48610;52.144;8.624;2023-07-31T00:57:59;16.00;99.90
62555;DHT22;48610;52.144;8.624;2023-07-31T01:01:00;16.10;99.90
62555;DHT22;48610;52.144;8.624;2023-07-31T01:04:00;16.10;99.90
62555;DHT22;48610;52.144;8.624;2023-07-31T01:07:13;16.10;99.90
62555;DHT22;48610;52.144;8.624;2023-07-31T01:10:27;16.10;99.90
62555;DHT22;48610;52.144;8.624;2023-07-31T01:13:31;16.20;99.90
62555;DHT22;48610;52.144;8.624;2023-07-31T01:16:31;16.20;99.90
62555;DHT22;48610;52.144;8.624;2023-07-31T01:19:32;16.10;99.90
62555;DHT22;48610;52.144;8.624;2023-07-31T01:29:01;16.10;99.90
62555;DHT22;48610;52.144;8.624;2023-07-31T01:32:05;16.20;99.90
62555;DHT22;48610;52.144;8.624;2023-07-31T01:35:06;16.10;99.90
62555;DHT22;48610;52.144;8.624;2023-07-31T01:38:08;16.20;99.90
62555;DHT22;48610;52.144;8.624;2023-07-31T01:41:08;16.10;99.90
62555;DHT22;48610;52.144;8.624;2023-07-31T01:44:09;16.10;99.90
62555;DHT22;48610;52.144;8.624;2023-07-31T01:47:10;16.10;99.90
62555;DHT22;48610;52.144;8.624;2023-07-31T01:50:10;16.10;99.90
62555;DHT22;48610;52.144;8.624;2023-07-31T01:53:11;16.10;99.90
62555;DHT22;48610;52.144;8.624;2023-07-31T01:56:12;16.10;99.90
62555;DHT22;48610;52.144;8.624;2023-07-31T01:59:13;16.00;99.90
62555;DHT22;48610;52.144;8.624;2023-07-31T02:02:14;15.90;99.90
62555;DHT22;48610;52.144;8.624;2023-07-31T02:05:14;15.80;99.90
62555;DHT22;48610;52.144;8.624;2023-07-31T02:08:15;15.70;99.90
62555;DHT22;48610;52.144;8.624;2023-07-31T02:11:16;15.60;99.90
62555;DHT22;48610;52.144;8.624;2023-07-31T02:14:17;15.60;99.90
62555;DHT22;48610;52.144;8.624;2023-07-31T02:17:17;15.50;99.90
62555;DHT22;48610;52.144;8.624;2023-07-31T02:20:18;15.50;99.90
62555;DHT22;48610;52.144;8.624;2023-07-31T02:23:19;15.50;99.90
62555;DHT22;48610;52.144;8.624;2023-07-31T02:26:20;15.40;99.90
62555;DHT22;48610;52.144;8.624;2023-07-31T02:29:20;15.40;99.90
62555;DHT22;48610;52.144;8.624;2023-07-31T02:32:21;15.40;99.90
62555;DHT22;48610;52.144;8.624;2023-07-31T02:35:22;15.30;99.90
62555;DHT22;48610;52.144;8.624;2023-07-31T02:38:22;15.30;99.90
62555;DHT22;48610;52.144;8.624;2023-07-31T02:41:23;15.40;99.90
62555;DHT22;48610;52.144;8.624;2023-07-31T02:44:24;15.50;99.90
62555;DHT22;48610;52.144;8.624;2023-07-31T02:47:24;15.40;99.90
62555;DHT22;48610;52.144;8.624;2023-07-31T02:50:25;15.20;99.90
62555;DHT22;48610;52.144;8.624;2023-07-31T02:53:25;15.30;99.90
62555;DHT22;48610;52.144;8.624;2023-07-31T02:56:26;15.10;99.90
62555;DHT22;48610;52.144;8.624;2023-07-31T02:59:28;15.10;99.90
62555;DHT22;48610;52.144;8.624;2023-07-31T03:02:28;15.00;99.90
62555;DHT22;48610;52.144;8.624;2023-07-31T03:05:29;15.10;99.90
62555;DHT22;48610;52.144;8.624;2023-07-31T03:08:29;15.10;99.90
62555;DHT22;48610;52.144;8.624;2023-07-31T03:11:30;15.00;99.90
62555;DHT22;48610;52.144;8.624;2023-07-31T03:14:30;15.00;99.90
62555;DHT22;48610;52.144;8.624;2023-07-31T03:17:31;15.10;99.90
62555;DHT22;48610;52.144;8.624;2023-07-31T03:20:32;15.10;99.90
62555;DHT22;48610;52.144;8.624;2023-07-31T03:23:33;15.10;99.90
62555;DHT22;48610;52.144;8.624;2023-07-31T03:26:33;15.40;99.90
62555;DHT22;48610;52.144;8.624;2023-07-31T03:29:34;15.40;99.90
62555;DHT22;48610;52.144;8.624;2023-07-31T03:32:35;15.10;99.90
62555;DHT22;48610;52.144;8.624;2023-07-31T03:35:35;15.10;99.90
62555;DHT22;48610;52.144;8.624;2023-07-31T03:38:36;15.20;99.90
62555;DHT22;48610;52.144;8.624;2023-07-31T03:41:36;15.30;99.90
62555;DHT22;48610;52.144;8.624;2023-07-31T03:44:37;15.30;99.90
62555;DHT22;48610;52.144;8.624;2023-07-31T03:47:38;15.20;99.90
62555;DHT22;48610;52.144;8.624;2023-07-31T03:50:38;15.20;99.90
62555;DHT22;48610;52.144;8.624;2023-07-31T03:53:39;15.30;99.90
62555;DHT22;48610;52.144;8.624;2023-07-31T03:56:40;15.50;99.90
62555;DHT22;48610;52.144;8.624;2023-07-31T03:59:40;15.60;99.90
62555;DHT22;48610;52.144;8.624;2023-07-31T04:02:41;15.80;99.90
62555;DHT22;48610;52.144;8.624;2023-07-31T04:05:42;15.80;99.90
62555;DHT22;48610;52.144;8.624;2023-07-31T04:08:42;15.80;99.90
62555;DHT22;48610;52.144;8.624;2023-07-31T04:11:43;15.90;99.90
62555;DHT22;48610;52.144;8.624;2023-07-31T04:14:43;16.00;99.90
62555;DHT22;48610;52.144;8.624;2023-07-31T04:17:44;16.00;99.90
62555;DHT22;48610;52.144;8.624;2023-07-31T04:20:45;16.00;99.90
62555;DHT22;48610;52.144;8.624;2023-07-31T04:23:45;16.10;99.90
62555;DHT22;48610;52.144;8.624;2023-07-31T04:26:46;16.10;99.90
62555;DHT22;48610;52.144;8.624;2023-07-31T04:29:47;16.10;99.90
62555;DHT22;48610;52.144;8.624;2023-07-31T04:32:48;16.10;99.90
62555;DHT22;48610;52.144;8.624;2023-07-31T04:35:54;16.10;99.90
62555;DHT22;48610;52.144;8.624;2023-07-31T04:38:55;16.00;99.90
62555;DHT22;48610;52.144;8.624;2023-07-31T04:41:56;16.00;99.90
62555;DHT22;48610;52.144;8.624;2023-07-31T04:44:56;16.10;99.90
62555;DHT22;48610;52.144;8.624;2023-07-31T04:47:57;16.10;99.90
62555;DHT22;48610;52.144;8.624;2023-07-31T04:50:57;16.10;99.90
62555;DHT22;48610;52.144;8.624;2023-07-31T04:53:58;16.10;99.90
62555;DHT22;48610;52.144;8.624;2023-07-31T04:56:58;16.10;99.90
62555;DHT22;48610;52.144;8.624;2023-07-31T04:59:59;16.10;99.90
62555;DHT22;48610;52.144;8.624;2023-07-31T05:03:00;16.10;99.90
62555;DHT22;48610;52.144;8.624;2023-07-31T05:06:00;16.10;99.90
62555;DHT22;48610;52.144;8.624;2023-07-31T05:09:01;16.10;99.90
62555;DHT22;48610;52.144;8.624;2023-07-31T05:12:04;16.00;99.90
62555;DHT22;48610;52.144;8.624;2023-07-31T05:15:05;16.10;99.90
62555;DHT22;48610;52.144;8.624;2023-07-31T05:18:06;16.10;99.90
62555;DHT22;48610;52.144;8.624;2023-07-31T05:21:06;16.00;99.90
62555;DHT22;48610;52.144;8.624;2023-07-31T05:24:07;15.90;99.90
62555;DHT22;48610;52.144;8.624;2023-07-31T05:27:08;15.90;99.90
62555;DHT22;48610;52.144;8.624;2023-07-31T05:30:10;16.00;99.90
62555;DHT22;48610;52.144;8.624;2023-07-31T05:33:10;16.00;99.90
62555;DHT22;48610;52.144;8.624;2023-07-31T05:36:11;16.00;99.90
62555;DHT22;48610;52.144;8.624;2023-07-31T05:39:12;16.00;99.90
62555;DHT22;48610;52.144;8.624;2023-07-31T05:42:12;16.10;99.90
62555;DHT22;48610;52.144;8.624;2023-07-31T05:45:13;16.00;99.90
62555;DHT22;48610;52.144;8.624;2023-07-31T05:48:14;16.10;99.90
62555;DHT22;48610;52.144;8.624;2023-07-31T05:51:14;16.10;99.90
62555;DHT22;48610;52.144;8.624;2023-07-31T05:54:15;16.10;99.90
62555;DHT22;48610;52.144;8.624;2023-07-31T05:57:16;16.10;99.90
62555;DHT22;48610;52.144;8.624;2023-07-31T06:00:16;16.10;99.90
62555;DHT22;48610;52.144;8.624;2023-07-31T06:03:17;16.20;99.90
62555;DHT22;48610;52.144;8.624;2023-07-31T06:06:18;16.10;99.90
62555;DHT22;48610;52.144;8.624;2023-07-31T06:09:18;16.10;99.90
62555;DHT22;48610;52.144;8.624;2023-07-31T06:12:20;16.10;99.90
62555;DHT22;48610;52.144;8.624;2023-07-31T06:15:21;16.10;99.90
62555;DHT22;48610;52.144;8.624;2023-07-31T06:18:25;16.20;99.90
62555;DHT22;48610;52.144;8.624;2023-07-31T06:21:26;16.20;99.90
62555;DHT22;48610;52.144;8.624;2023-07-31T06:24:28;16.20;99.90
62555;DHT22;48610;52.144;8.624;2023-07-31T06:27:29;16.30;99.90
62555;DHT22;48610;52.144;8.624;2023-07-31T06:30:29;16.30;99.90
62555;DHT22;48610;52.144;8.624;2023-07-31T06:33:30;16.20;99.90
62555;DHT22;48610;52.144;8.624;2023-07-31T06:36:31;16.30;99.90
62555;DHT22;48610;52.144;8.624;2023-07-31T06:39:31;16.30;99.90
62555;DHT22;48610;52.144;8.624;2023-07-31T06:42:32;16.40;99.90
62555;DHT22;48610;52.144;8.624;2023-07-31T06:45:35;16.40;99.90
62555;DHT22;48610;52.144;8.624;2023-07-31T06:48:36;16.20;99.90
62555;DHT22;48610;52.144;8.624;2023-07-31T06:51:37;16.10;99.90
62555;DHT22;48610;52.144;8.624;2023-07-31T06:54:38;16.10;99.90
62555;DHT22;48610;52.144;8.624;2023-07-31T06:57:39;16.20;99.90
62555;DHT22;48610;52.144;8.624;2023-07-31T07:00:40;16.10;99.90
62555;DHT22;48610;52.144;8.624;2023-07-31T07:03:40;16.10;99.90
62555;DHT22;48610;52.144;8.624;2023-07-31T07:06:41;16.20;99.90
62555;DHT22;48610;52.144;8.624;2023-07-31T07:09:42;16.20;99.90
62555;DHT22;48610;52.144;8.624;2023-07-31T07:12:43;16.20;99.90
62555;DHT22;48610;52.144;8.624;2023-07-31T07:15:48;16.40;99.90
62555;DHT22;48610;52.144;8.624;2023-07-31T07:18:49;16.50;99.90
62555;DHT22;48610;52.144;8.624;2023-07-31T07:21:49;16.60;99.90
62555;DHT22;48610;52.144;8.624;2023-07-31T07:24:50;16.60;99.90
62555;DHT22;48610;52.144;8.624;2023-07-31T07:27:51;16.60;99.90
62555;DHT22;48610;52.144;8.624;2023-07-31T07:30:54;16.50;99.90
62555;DHT22;48610;52.144;8.624;2023-07-31T07:33:55;16.50;99.90
62555;DHT22;48610;52.144;8.624;2023-07-31T07:36:57;16.60;99.90
62555;DHT22;48610;52.144;8.624;2023-07-31T07:39:58;16.60;99.90
62555;DHT22;48610;52.144;8.624;2023-07-31T07:43:01;16.50;99.90
62555;DHT22;48610;52.144;8.624;2023-07-31T07:46:02;16.60;99.90
62555;DHT22;48610;52.144;8.624;2023-07-31T07:49:02;16.50;99.90
62555;DHT22;48610;52.144;8.624;2023-07-31T07:52:03;16.40;99.90
62555;DHT22;48610;52.144;8.624;2023-07-31T07:55:04;16.40;99.90
62555;DHT22;48610;52.144;8.624;2023-07-31T07:58:05;16.40;99.90
62555;DHT22;48610;52.144;8.624;2023-07-31T08:01:05;16.40;99.90
62555;DHT22;48610;52.144;8.624;2023-07-31T08:04:06;16.50;99.90
62555;DHT22;48610;52.144;8.624;2023-07-31T08:07:07;16.40;99.90
62555;DHT22;48610;52.144;8.624;2023-07-31T08:10:08;16.40;99.90
62555;DHT22;48610;52.144;8.624;2023-07-31T08:13:11;16.40;99.90
62555;DHT22;48610;52.144;8.624;2023-07-31T08:16:11;16.40;99.90
62555;DHT22;48610;52.144;8.624;2023-07-31T08:19:15;16.40;99.90
62555;DHT22;48610;52.144;8.624;2023-07-31T08:22:16;16.40;99.90
62555;DHT22;48610;52.144;8.624;2023-07-31T08:25:16;16.50;99.90
62555;DHT22;48610;52.144;8.624;2023-07-31T08:28:17;16.50;99.90
62555;DHT22;48610;52.144;8.624;2023-07-31T08:31:19;16.60;99.90
62555;DHT22;48610;52.144;8.624;2023-07-31T08:34:19;16.60;99.90
62555;DHT22;48610;52.144;8.624;2023-07-31T08:37:20;16.70;99.90
62555;DHT22;48610;52.144;8.624;2023-07-31T08:40:21;16.60;99.90
62555;DHT22;48610;52.144;8.624;2023-07-31T08:43:25;16.60;99.90
62555;DHT22;48610;52.144;8.624;2023-07-31T08:46:26;16.70;99.90
62555;DHT22;48610;52.144;8.624;2023-07-31T08:49:27;16.70;99.90
62555;DHT22;48610;52.144;8.624;2023-07-31T08:52:29;16.80;99.90
62555;DHT22;48610;52.144;8.624;2023-07-31T08:55:30;16.90;99.90
62555;DHT22;48610;52.144;8.624;2023-07-31T08:58:32;17.00;99.90
62555;DHT22;48610;52.144;8.624;2023-07-31T09:01:43;17.10;99.90
62555;DHT22;48610;52.144;8.624;2023-07-31T09:04:44;17.40;99.90
62555;DHT22;48610;52.144;8.624;2023-07-31T09:07:48;17.30;99.90
62555;DHT22;48610;52.144;8.624;2023-07-31T09:10:50;17.30;99.90
62555;DHT22;48610;52.144;8.624;2023-07-31T09:13:52;17.30;99.90
62555;DHT22;48610;52.144;8.624;2023-07-31T09:16:54;17.20;99.90
62555;DHT22;48610;52.144;8.624;2023-07-31T09:19:55;17.20;99.90
62555;DHT22;48610;52.144;8.624;2023-07-31T09:22:56;17.20;99.90
62555;DHT22;48610;52.144;8.624;2023-07-31T09:25:56;17.30;99.90
62555;DHT22;48610;52.144;8.624;2023-07-31T09:28:58;17.20;99.90
62555;DHT22;48610;52.144;8.624;2023-07-31T09:32:00;17.10;99.90
62555;DHT22;48610;52.144;8.624;2023-07-31T09:35:00;17.20;99.90
62555;DHT22;48610;52.144;8.624;2023-07-31T09:38:06;17.40;99.90
62555;DHT22;48610;52.144;8.624;2023-07-31T09:41:07;17.30;99.90
62555;DHT22;48610;52.144;8.624;2023-07-31T09:44:08;17.40;99.90
62555;DHT22;48610;52.144;8.624;2023-07-31T09:47:35;17.40;99.90
62555;DHT22;48610;52.144;8.624;2023-07-31T09:50:37;17.20;99.90
62555;DHT22;48610;52.144;8.624;2023-07-31T09:53:39;17.10;99.90
62555;DHT22;48610;52.144;8.624;2023-07-31T09:56:46;17.20;99.90
62555;DHT22;48610;52.144;8.624;2023-07-31T09:59:48;17.30;99.90
62555;DHT22;48610;52.144;8.624;2023-07-31T10:02:51;17.40;99.90
62555;DHT22;48610;52.144;8.624;2023-07-31T10:05:53;17.30;99.90
62555;DHT22;48610;52.144;8.624;2023-07-31T10:08:56;17.40;99.90
62555;DHT22;48610;52.144;8.624;2023-07-31T10:12:02;17.30;99.90
62555;DHT22;48610;52.144;8.624;2023-07-31T10:15:06;17.20;99.90
62555;DHT22;48610;52.144;8.624;2023-07-31T10:18:09;17.20;99.90
62555;DHT22;48610;52.144;8.624;2023-07-31T10:21:11;17.10;99.90
62555;DHT22;48610;52.144;8.624;2023-07-31T10:24:12;17.10;99.90
62555;DHT22;48610;52.144;8.624;2023-07-31T10:27:13;17.10;99.90
62555;DHT22;48610;52.144;8.624;2023-07-31T10:30:20;17.00;99.90
62555;DHT22;48610;52.144;8.624;2023-07-31T10:33:21;17.10;99.90
62555;DHT22;48610;52.144;8.624;2023-07-31T10:36:21;17.10;99.90
62555;DHT22;48610;52.144;8.624;2023-07-31T10:39:36;17.10;99.90
62555;DHT22;48610;52.144;8.624;2023-07-31T10:42:45;17.20;99.90
62555;DHT22;48610;52.144;8.624;2023-07-31T10:45:45;17.10;99.90
62555;DHT22;48610;52.144;8.624;2023-07-31T10:49:01;17.10;99.90
62555;DHT22;48610;52.144;8.624;2023-07-31T10:52:03;17.10;99.90
62555;DHT22;48610;52.144;8.624;2023-07-31T10:55:30;17.10;99.90
62555;DHT22;48610;52.144;8.624;2023-07-31T10:58:32;17.10;99.90
62555;DHT22;48610;52.144;8.624;2023-07-31T11:01:54;17.30;99.90
62555;DHT22;48610;52.144;8.624;2023-07-31T11:05:10;17.30;99.90
62555;DHT22;48610;52.144;8.624;2023-07-31T11:11:17;17.40;99.90
62555;DHT22;48610;52.144;8.624;2023-07-31T11:14:18;17.30;99.90
62555;DHT22;48610;52.144;8.624;2023-07-31T11:17:18;17.40;99.90
62555;DHT22;48610;52.144;8.624;2023-07-31T11:20:19;17.40;99.90
62555;DHT22;48610;52.144;8.624;2023-07-31T11:23:21;17.40;99.90
62555;DHT22;48610;52.144;8.624;2023-07-31T11:26:23;17.30;99.90
62555;DHT22;48610;52.144;8.624;2023-07-31T11:29:27;17.30;99.90
62555;DHT22;48610;52.144;8.624;2023-07-31T11:32:28;17.10;99.90
62555;DHT22;48610;52.144;8.624;2023-07-31T11:35:31;17.10;99.90
62555;DHT22;48610;52.144;8.624;2023-07-31T11:38:33;17.20;99.90
62555;DHT22;48610;52.144;8.624;2023-07-31T11:41:34;17.30;99.90
62555;DHT22;48610;52.144;8.624;2023-07-31T11:44:39;17.30;99.90
62555;DHT22;48610;52.144;8.624;2023-07-31T11:47:41;17.30;99.90
62555;DHT22;48610;52.144;8.624;2023-07-31T11:50:42;17.40;99.90
62555;DHT22;48610;52.144;8.624;2023-07-31T11:53:49;17.30;99.90
62555;DHT22;48610;52.144;8.624;2023-07-31T11:56:51;17.20;99.90
62555;DHT22;48610;52.144;8.624;2023-07-31T11:59:52;17.20;99.90
62555;DHT22;48610;52.144;8.624;2023-07-31T12:02:53;17.30;99.90
62555;DHT22;48610;52.144;8.624;2023-07-31T12:05:54;17.30;99.90
62555;DHT22;48610;52.144;8.624;2023-07-31T12:09:01;17.50;99.90
62555;DHT22;48610;52.144;8.624;2023-07-31T12:12:08;17.60;99.90
62555;DHT22;48610;52.144;8.624;2023-07-31T12:15:15;17.50;99.90
62555;DHT22;48610;52.144;8.624;2023-07-31T12:18:19;17.40;99.90
62555;DHT22;48610;52.144;8.624;2023-07-31T12:21:20;17.40;99.90
62555;DHT22;48610;52.144;8.624;2023-07-31T12:24:21;17.40;99.90
62555;DHT22;48610;52.144;8.624;2023-07-31T12:27:22;17.50;99.90
62555;DHT22;48610;52.144;8.624;2023-07-31T12:30:34;17.50;99.90
62555;DHT22;48610;52.144;8.624;2023-07-31T12:33:36;17.50;99.90
62555;DHT22;48610;52.144;8.624;2023-07-31T12:36:38;17.60;99.90
62555;DHT22;48610;52.144;8.624;2023-07-31T12:39:40;17.50;99.90
62555;DHT22;48610;52.144;8.624;2023-07-31T12:42:41;17.60;99.90
62555;DHT22;48610;52.144;8.624;2023-07-31T12:45:42;17.50;99.90
62555;DHT22;48610;52.144;8.624;2023-07-31T12:48:43;17.70;99.90
62555;DHT22;48610;52.144;8.624;2023-07-31T12:51:43;17.60;99.90
62555;DHT22;48610;52.144;8.624;2023-07-31T12:54:44;17.60;99.90
62555;DHT22;48610;52.144;8.624;2023-07-31T12:57:44;17.70;99.90
62555;DHT22;48610;52.144;8.624;2023-07-31T13:00:45;17.50;99.90
62555;DHT22;48610;52.144;8.624;2023-07-31T13:03:46;17.40;99.90
62555;DHT22;48610;52.144;8.624;2023-07-31T13:06:46;17.40;99.90
62555;DHT22;48610;52.144;8.624;2023-07-31T13:09:48;17.40;99.90
62555;DHT22;48610;52.144;8.624;2023-07-31T13:12:49;17.50;99.90
62555;DHT22;48610;52.144;8.624;2023-07-31T13:15:50;17.50;99.90
62555;DHT22;48610;52.144;8.624;2023-07-31T13:18:51;17.50;99.90
62555;DHT22;48610;52.144;8.624;2023-07-31T13:21:53;17.50;99.90
62555;DHT22;48610;52.144;8.624;2023-07-31T13:24:54;17.60;99.90
62555;DHT22;48610;52.144;8.624;2023-07-31T13:27:55;17.70;99.90
62555;DHT22;48610;52.144;8.624;2023-07-31T13:30:56;17.70;99.90
62555;DHT22;48610;52.144;8.624;2023-07-31T13:33:56;17.80;99.90
62555;DHT22;48610;52.144;8.624;2023-07-31T13:36:57;17.80;99.90
62555;DHT22;48610;52.144;8.624;2023-07-31T13:39:58;17.80;99.90
62555;DHT22;48610;52.144;8.624;2023-07-31T13:42:58;17.90;99.90
62555;DHT22;48610;52.144;8.624;2023-07-31T13:45:59;18.00;99.90
62555;DHT22;48610;52.144;8.624;2023-07-31T13:49:08;18.00;99.90
62555;DHT22;48610;52.144;8.624;2023-07-31T13:52:09;18.10;99.90
62555;DHT22;48610;52.144;8.624;2023-07-31T13:55:10;18.10;99.90
62555;DHT22;48610;52.144;8.624;2023-07-31T13:58:11;18.20;99.90
62555;DHT22;48610;52.144;8.624;2023-07-31T14:01:11;18.30;99.90
62555;DHT22;48610;52.144;8.624;2023-07-31T14:04:12;18.40;99.90
62555;DHT22;48610;52.144;8.624;2023-07-31T14:07:13;18.40;99.90
62555;DHT22;48610;52.144;8.624;2023-07-31T14:10:13;18.40;99.90
62555;DHT22;48610;52.144;8.624;2023-07-31T14:13:14;18.40;99.90
62555;DHT22;48610;52.144;8.624;2023-07-31T14:16:16;18.40;99.90
62555;DHT22;48610;52.144;8.624;2023-07-31T14:19:16;18.40;99.90
62555;DHT22;48610;52.144;8.624;2023-07-31T14:22:28;18.50;99.90
62555;DHT22;48610;52.144;8.624;2023-07-31T14:25:29;18.50;99.90
62555;DHT22;48610;52.144;8.624;2023-07-31T14:28:30;18.50;99.90
62555;DHT22;48610;52.144;8.624;2023-07-31T14:31:30;18.60;99.90
62555;DHT22;48610;52.144;8.624;2023-07-31T14:34:32;18.60;99.90
62555;DHT22;48610;52.144;8.624;2023-07-31T14:37:40;18.60;99.90
62555;DHT22;48610;52.144;8.624;2023-07-31T14:40:41;18.60;99.90
62555;DHT22;48610;52.144;8.624;2023-07-31T14:43:42;18.60;99.90
62555;DHT22;48610;52.144;8.624;2023-07-31T14:46:43;18.60;99.90
62555;DHT22;48610;52.144;8.624;2023-07-31T14:49:44;18.60;99.90
62555;DHT22;48610;52.144;8.624;2023-07-31T14:52:45;18.50;99.90
62555;DHT22;48610;52.144;8.624;2023-07-31T14:55:45;18.50;99.90
62555;DHT22;48610;52.144;8.624;2023-07-31T14:58:46;18.60;99.90
62555;DHT22;48610;52.144;8.624;2023-07-31T15:01:47;18.70;99.90
62555;DHT22;48610;52.144;8.624;2023-07-31T15:04:48;18.70;99.90
62555;DHT22;48610;52.144;8.624;2023-07-31T15:07:48;18.80;99.90
62555;DHT22;48610;52.144;8.624;2023-07-31T15:10:49;18.80;99.90
62555;DHT22;48610;52.144;8.624;2023-07-31T15:13:50;18.80;99.90
62555;DHT22;48610;52.144;8.624;2023-07-31T15:16:50;18.90;99.90
62555;DHT22;48610;52.144;8.624;2023-07-31T15:19:51;18.90;99.90
62555;DHT22;48610;52.144;8.624;2023-07-31T15:22:52;19.00;99.90
62555;DHT22;48610;52.144;8.624;2023-07-31T15:25:53;19.00;99.90
62555;DHT22;48610;52.144;8.624;2023-07-31T15:29:03;19.00;99.90
62555;DHT22;48610;52.144;8.624;2023-07-31T15:32:06;19.10;99.90
62555;DHT22;48610;52.144;8.624;2023-07-31T15:35:07;19.10;99.90
62555;DHT22;48610;52.144;8.624;2023-07-31T15:38:08;19.00;99.90
62555;DHT22;48610;52.144;8.624;2023-07-31T15:41:08;19.00;99.90
62555;DHT22;48610;52.144;8.624;2023-07-31T15:44:09;18.90;99.90
62555;DHT22;48610;52.144;8.624;2023-07-31T15:47:11;18.90;99.90
62555;DHT22;48610;52.144;8.624;2023-07-31T15:50:11;18.90;99.90
62555;DHT22;48610;52.144;8.624;2023-07-31T15:53:12;18.90;99.90
62555;DHT22;48610;52.144;8.624;2023-07-31T15:56:13;18.80;99.90
62555;DHT22;48610;52.144;8.624;2023-07-31T15:59:13;18.80;99.90
62555;DHT22;48610;52.144;8.624;2023-07-31T16:02:14;18.70;99.90
62555;DHT22;48610;52.144;8.624;2023-07-31T16:05:15;18.70;99.90
62555;DHT22;48610;52.144;8.624;2023-07-31T16:08:15;18.60;99.90
62555;DHT22;48610;52.144;8.624;2023-07-31T16:11:16;18.30;99.90
62555;DHT22;48610;52.144;8.624;2023-07-31T16:14:17;18.20;99.90
62555;DHT22;48610;52.144;8.624;2023-07-31T16:17:18;18.10;99.90
62555;DHT22;48610;52.144;8.624;2023-07-31T16:20:18;18.00;99.90
62555;DHT22;48610;52.144;8.624;2023-07-31T16:23:19;18.10;99.90
62555;DHT22;48610;52.144;8.624;2023-07-31T16:26:20;18.10;99.90
62555;DHT22;48610;52.144;8.624;2023-07-31T16:29:20;18.10;99.90
62555;DHT22;48610;52.144;8.624;2023-07-31T16:32:21;18.10;99.90
62555;DHT22;48610;52.144;8.624;2023-07-31T16:35:22;18.30;99.90
62555;DHT22;48610;52.144;8.624;2023-07-31T16:38:22;18.30;99.90
62555;DHT22;48610;52.144;8.624;2023-07-31T16:41:23;18.30;99.90
62555;DHT22;48610;52.144;8.624;2023-07-31T16:44:24;18.30;99.90
62555;DHT22;48610;52.144;8.624;2023-07-31T16:47:24;18.30;99.90
62555;DHT22;48610;52.144;8.624;2023-07-31T16:50:25;18.30;99.90
62555;DHT22;48610;52.144;8.624;2023-07-31T16:53:25;18.40;99.90
62555;DHT22;48610;52.144;8.624;2023-07-31T16:56:26;18.50;99.90
62555;DHT22;48610;52.144;8.624;2023-07-31T16:59:27;18.40;99.90
62555;DHT22;48610;52.144;8.624;2023-07-31T17:02:28;18.40;99.90
62555;DHT22;48610;52.144;8.624;2023-07-31T17:05:28;18.50;99.90
62555;DHT22;48610;52.144;8.624;2023-07-31T17:08:29;18.40;99.90
62555;DHT22;48610;52.144;8.624;2023-07-31T17:11:30;18.40;99.90
62555;DHT22;48610;52.144;8.624;2023-07-31T17:14:30;18.30;99.90
62555;DHT22;48610;52.144;8.624;2023-07-31T17:17:31;18.30;99.90
62555;DHT22;48610;52.144;8.624;2023-07-31T17:20:32;18.30;99.90
62555;DHT22;48610;52.144;8.624;2023-07-31T17:23:32;18.30;99.90
62555;DHT22;48610;52.144;8.624;2023-07-31T17:26:33;18.30;99.90
62555;DHT22;48610;52.144;8.624;2023-07-31T17:29:34;18.30;99.90
62555;DHT22;48610;52.144;8.624;2023-07-31T17:32:34;18.40;99.90
62555;DHT22;48610;52.144;8.624;2023-07-31T17:35:35;18.30;99.90
62555;DHT22;48610;52.144;8.624;2023-07-31T17:38:36;18.30;99.90
62555;DHT22;48610;52.144;8.624;2023-07-31T17:41:36;18.30;99.90
62555;DHT22;48610;52.144;8.624;2023-07-31T17:44:37;18.30;99.90
62555;DHT22;48610;52.144;8.624;2023-07-31T17:47:38;18.10;99.90
62555;DHT22;48610;52.144;8.624;2023-07-31T17:50:38;18.20;99.90
62555;DHT22;48610;52.144;8.624;2023-07-31T17:53:39;18.10;99.90
62555;DHT22;48610;52.144;8.624;2023-07-31T17:56:40;18.00;99.90
62555;DHT22;48610;52.144;8.624;2023-07-31T17:59:40;18.00;99.90
62555;DHT22;48610;52.144;8.624;2023-07-31T18:02:43;18.00;99.90
62555;DHT22;48610;52.144;8.624;2023-07-31T18:05:44;18.00;99.90
62555;DHT22;48610;52.144;8.624;2023-07-31T18:08:44;18.10;99.90
62555;DHT22;48610;52.144;8.624;2023-07-31T18:11:45;18.00;99.90
62555;DHT22;48610;52.144;8.624;2023-07-31T18:14:45;18.10;99.90
62555;DHT22;48610;52.144;8.624;2023-07-31T18:17:46;18.10;99.90
62555;DHT22;48610;52.144;8.624;2023-07-31T18:20:47;18.00;99.90
62555;DHT22;48610;52.144;8.624;2023-07-31T18:23:47;18.10;99.90
62555;DHT22;48610;52.144;8.624;2023-07-31T18:26:48;17.90;99.90
62555;DHT22;48610;52.144;8.624;2023-07-31T18:29:49;17.70;99.90
62555;DHT22;48610;52.144;8.624;2023-07-31T18:32:49;17.70;99.90
62555;DHT22;48610;52.144;8.624;2023-07-31T18:35:50;17.70;99.90
62555;DHT22;48610;52.144;8.624;2023-07-31T18:38:51;17.70;99.90
62555;DHT22;48610;52.144;8.624;2023-07-31T18:41:51;17.80;99.90
62555;DHT22;48610;52.144;8.624;2023-07-31T18:44:52;17.80;99.90
62555;DHT22;48610;52.144;8.624;2023-07-31T18:47:53;17.80;99.90
62555;DHT22;48610;52.144;8.624;2023-07-31T18:50:53;17.80;99.90
62555;DHT22;48610;52.144;8.624;2023-07-31T18:53:54;17.80;99.90
62555;DHT22;48610;52.144;8.624;2023-07-31T18:56:55;17.80;99.90
62555;DHT22;48610;52.144;8.624;2023-07-31T18:59:56;17.80;99.90
62555;DHT22;48610;52.144;8.624;2023-07-31T19:02:56;17.80;99.90
62555;DHT22;48610;52.144;8.624;2023-07-31T19:06:04;17.80;99.90
62555;DHT22;48610;52.144;8.624;2023-07-31T19:09:05;17.80;99.90
62555;DHT22;48610;52.144;8.624;2023-07-31T19:12:06;17.80;99.90
62555;DHT22;48610;52.144;8.624;2023-07-31T19:15:07;17.70;99.90